Archival Weather

Sulphur Springs Muni

Sulphur Springs, Texas (KSLR)

Report from: Thursday, February 22, 2024 3:35 AM CST
Current time: Wednesday, April 24, 2024 2:40 PM CDT

Current weather – Weather history – Daily summaries
Weather forecast

Temperature18.0°C (64.4°F)
Dew point14.0°C (57.2°F)
Winds 20 kts (10.3 m/s, 23 mph) South-Southwest (200°)
Wind gusts 25 kts (12.9 m/s, 28.8 mph)
Visibility10 mi. (16.1 km)
Clouds Ceiling: Overcast 2,300 ft. (701 m)
Altimeter29.83 in.Hg (1010 mB)
Relative humidity77 %
Density altitude679 ft. (207 m)
Remarks Fully automated report
Automated weather observing station with precipitation discriminator
Flight conditions Marginal Visual Meteorological Conditions
Raw dataKSLR 220935Z AUTO 20020G25KT 10SM OVC023 18/14 A2983 RMK AO2 T01800140
An error has occurred. This application may no longer respond until reloaded. Reload 🗙